Time;durP1;ratioP1;P1;durP2;ratioP2;P2;SDS_P1;SDS_P2;PMS_P1;PMS_P2;Temp;Humidity;BMP_temperature;BMP_pressure;BME280_temperature;BME280_humidity;BME280_pressure;Samples;Min_cycle;Max_cycle;Signal;HPM_P1;HPM_P2
2022/07/22 00:00:14;;;;;;;8.82;4.95;;;22.00;99.90;;;;;;5115535;28;20031;-54
2022/07/22 00:02:40;;;;;;;7.15;5.07;;;21.90;99.90;;;;;;5115699;28;20023;-54
2022/07/22 00:05:06;;;;;;;5.90;4.90;;;21.90;99.90;;;;;;5115825;28;20036;-52
2022/07/22 00:07:32;;;;;;;6.30;4.50;;;21.90;99.90;;;;;;5115352;28;20019;-54
2022/07/22 00:09:58;;;;;;;5.05;4.18;;;21.90;99.90;;;;;;5115279;28;20503;-53
2022/07/22 00:12:24;;;;;;;8.68;5.10;;;21.90;99.90;;;;;;5114346;28;20023;-53
2022/07/22 00:14:50;;;;;;;6.18;4.70;;;21.80;99.90;;;;;;5115639;28;20434;-52
2022/07/22 00:17:16;;;;;;;6.40;4.65;;;21.70;99.90;;;;;;5115451;28;20032;-55
2022/07/22 00:19:42;;;;;;;6.78;4.45;;;21.80;99.90;;;;;;5115304;28;20072;-54
2022/07/22 00:22:07;;;;;;;6.32;4.60;;;21.70;99.90;;;;;;5115219;28;20085;-53
2022/07/22 00:24:33;;;;;;;5.20;4.43;;;21.70;99.90;;;;;;5115027;28;20032;-53
2022/07/22 00:26:59;;;;;;;9.00;5.25;;;21.70;99.90;;;;;;5115249;28;20031;-54
2022/07/22 00:29:25;;;;;;;8.38;4.70;;;21.60;99.90;;;;;;5115041;28;20539;-52
2022/07/22 00:31:50;;;;;;;5.65;4.88;;;21.60;99.90;;;;;;5115120;28;20111;-51
2022/07/22 00:34:21;;;;;;;7.35;5.15;;;21.60;99.90;;;;;;5115109;28;20043;-54
2022/07/22 00:36:46;;;;;;;6.03;4.43;;;21.40;99.90;;;;;;5114864;28;20063;-55
2022/07/22 00:39:12;;;;;;;7.10;4.80;;;21.50;99.90;;;;;;5114719;28;20031;-53
2022/07/22 00:41:38;;;;;;;7.90;5.15;;;21.50;99.90;;;;;;5114852;28;20020;-54
2022/07/22 00:44:06;;;;;;;6.90;4.75;;;21.50;99.90;;;;;;5114278;28;20480;-53
2022/07/22 00:46:34;;;;;;;7.20;4.60;;;21.50;99.90;;;;;;5114782;28;20039;-54
2022/07/22 00:49:00;;;;;;;8.95;5.00;;;21.40;99.90;;;;;;5114757;28;20027;-53
2022/07/22 00:51:27;;;;;;;8.55;4.80;;;21.40;99.90;;;;;;5115027;28;20081;-52
2022/07/22 00:53:54;;;;;;;6.13;5.10;;;21.40;99.90;;;;;;5114588;28;20441;-51
2022/07/22 00:56:21;;;;;;;5.78;4.70;;;21.30;99.90;;;;;;5114583;28;20090;-54
2022/07/22 00:58:49;;;;;;;7.05;4.90;;;21.30;99.90;;;;;;5114324;28;20035;-53
2022/07/22 01:01:15;;;;;;;7.13;5.10;;;21.30;99.90;;;;;;5114552;28;20032;-53
2022/07/22 01:03:42;;;;;;;5.82;4.82;;;21.30;99.90;;;;;;5114662;28;20028;-52
2022/07/22 01:06:09;;;;;;;8.85;5.00;;;21.30;99.90;;;;;;5114523;28;20027;-51
2022/07/22 01:08:35;;;;;;;7.90;5.22;;;21.20;99.90;;;;;;5114340;28;20053;-54
2022/07/22 01:11:15;;;;;;;8.15;5.32;;;21.20;99.90;;;;;;5096298;28;20031;-53
2022/07/22 01:13:42;;;;;;;7.68;5.07;;;21.10;99.90;;;;;;5114348;28;20050;-53
2022/07/22 01:16:09;;;;;;;8.02;5.20;;;21.10;99.90;;;;;;5114505;28;20419;-54
2022/07/22 01:18:37;;;;;;;6.57;4.97;;;21.10;99.90;;;;;;5114215;28;20027;-54
2022/07/22 01:21:05;;;;;;;5.82;5.13;;;21.00;99.90;;;;;;5114002;28;20027;-54
2022/07/22 01:23:31;;;;;;;5.93;5.30;;;20.90;99.90;;;;;;5095229;28;20464;-54
2022/07/22 01:25:57;;;;;;;5.80;4.90;;;21.00;99.90;;;;;;5114459;28;20480;-53
2022/07/22 01:28:23;;;;;;;5.88;5.28;;;20.90;99.90;;;;;;5113624;28;20030;-54
2022/07/22 01:30:49;;;;;;;8.20;5.18;;;20.90;99.90;;;;;;5113828;28;20114;-54
2022/07/22 01:33:16;;;;;;;5.95;5.35;;;20.80;99.90;;;;;;5113754;28;20038;-53
2022/07/22 01:35:42;;;;;;;7.03;5.15;;;20.90;99.90;;;;;;5113659;28;20027;-53
2022/07/22 01:38:08;;;;;;;9.80;5.43;;;20.70;99.90;;;;;;5113790;28;20023;-52
2022/07/22 01:40:34;;;;;;;8.40;5.45;;;20.70;99.90;;;;;;5113931;28;20024;-53
2022/07/22 01:43:00;;;;;;;5.75;5.15;;;20.70;99.90;;;;;;5113258;28;20031;-55
2022/07/22 01:45:26;;;;;;;6.47;5.68;;;20.60;99.90;;;;;;5113601;28;20027;-54
2022/07/22 01:47:52;;;;;;;7.25;6.13;;;20.50;99.90;;;;;;5113582;28;20369;-50
2022/07/22 01:50:18;;;;;;;8.27;5.88;;;20.40;99.90;;;;;;5113666;28;20493;-55
2022/07/22 01:52:43;;;;;;;7.78;6.50;;;20.50;99.90;;;;;;5113513;28;20369;-55
2022/07/22 01:55:09;;;;;;;7.60;5.57;;;20.40;99.90;;;;;;5113558;28;20100;-55
2022/07/22 01:57:38;;;;;;;6.20;5.60;;;20.40;99.90;;;;;;5113378;28;20373;-54
2022/07/22 02:00:08;;;;;;;6.90;5.72;;;20.40;99.90;;;;;;5113376;28;20464;-54
2022/07/22 02:02:35;;;;;;;7.03;5.85;;;20.50;99.90;;;;;;5095289;28;20019;-54
2022/07/22 02:05:02;;;;;;;6.00;5.40;;;20.40;99.90;;;;;;5113627;28;20046;-54
2022/07/22 02:07:28;;;;;;;7.88;5.93;;;20.40;99.90;;;;;;5112996;28;20027;-53
2022/07/22 02:09:54;;;;;;;7.93;5.80;;;20.30;99.90;;;;;;5112673;28;20033;-54
2022/07/22 02:12:19;;;;;;;6.60;5.90;;;20.30;99.90;;;;;;5112894;28;20016;-54
2022/07/22 02:14:45;;;;;;;6.88;5.95;;;20.30;99.90;;;;;;5113555;28;20483;-50
2022/07/22 02:17:12;;;;;;;7.50;6.05;;;20.20;99.90;;;;;;5113223;28;20031;-53
2022/07/22 02:19:38;;;;;;;6.78;5.70;;;20.10;99.90;;;;;;5112866;28;20102;-53
2022/07/22 02:22:04;;;;;;;6.25;5.65;;;20.10;99.90;;;;;;5111623;28;20110;-53
2022/07/22 02:24:29;;;;;;;6.35;5.75;;;20.10;99.90;;;;;;5094524;28;20024;-53
2022/07/22 02:26:55;;;;;;;8.98;5.88;;;20.20;99.90;;;;;;5112876;28;20020;-54
2022/07/22 02:29:21;;;;;;;8.02;6.55;;;20.10;99.90;;;;;;5112775;28;20051;-54
2022/07/22 02:31:47;;;;;;;7.57;5.95;;;20.20;99.90;;;;;;5112815;28;20400;-54
2022/07/22 02:34:13;;;;;;;7.03;6.30;;;20.10;99.90;;;;;;5112628;28;20028;-54
2022/07/22 02:36:38;;;;;;;8.05;6.03;;;20.10;99.90;;;;;;5112326;28;20051;-52
2022/07/22 02:39:04;;;;;;;11.50;7.30;;;20.00;99.90;;;;;;5112241;28;20098;-54
2022/07/22 02:41:30;;;;;;;9.27;7.40;;;20.00;99.90;;;;;;5112550;28;20529;-53
2022/07/22 02:43:56;;;;;;;7.88;7.13;;;19.70;99.90;;;;;;5112622;28;20031;-55
2022/07/22 02:46:23;;;;;;;11.65;8.02;;;19.70;99.90;;;;;;5112608;28;20030;-54
2022/07/22 02:48:48;;;;;;;7.47;6.50;;;19.60;99.90;;;;;;5113071;28;20028;-54
2022/07/22 02:51:14;;;;;;;7.50;6.80;;;19.60;99.90;;;;;;5112534;28;20045;-54
2022/07/22 02:53:40;;;;;;;8.43;6.75;;;19.60;99.90;;;;;;5112254;28;20031;-54
2022/07/22 02:56:06;;;;;;;7.53;6.43;;;19.60;99.90;;;;;;5112536;28;20032;-53
2022/07/22 02:58:31;;;;;;;9.32;6.80;;;19.60;99.90;;;;;;5112950;28;20020;-51
2022/07/22 03:00:57;;;;;;;10.32;7.15;;;19.50;99.90;;;;;;5112454;28;20106;-52
2022/07/22 03:03:23;;;;;;;9.48;6.47;;;19.50;99.90;;;;;;5112426;28;20023;-52
2022/07/22 03:05:49;;;;;;;9.20;6.90;;;19.60;99.90;;;;;;5112699;28;20035;-52
2022/07/22 03:08:15;;;;;;;9.38;6.80;;;19.40;99.90;;;;;;5112066;28;20046;-53
2022/07/22 03:10:41;;;;;;;8.15;6.72;;;19.60;99.90;;;;;;5112343;28;20461;-52
2022/07/22 03:13:07;;;;;;;8.00;6.95;;;19.50;99.90;;;;;;5112297;28;20038;-54
2022/07/22 03:15:33;;;;;;;7.50;6.70;;;19.50;99.90;;;;;;5112331;28;20042;-53
2022/07/22 03:17:58;;;;;;;8.63;6.85;;;19.60;99.90;;;;;;5112280;28;20094;-52
2022/07/22 03:20:24;;;;;;;9.30;7.20;;;19.60;99.90;;;;;;5112563;28;20480;-52
2022/07/22 03:22:49;;;;;;;6.90;6.25;;;19.50;99.90;;;;;;5111930;28;20073;-51
2022/07/22 03:25:15;;;;;;;8.95;6.40;;;19.50;99.90;;;;;;5112202;28;20127;-54
2022/07/22 03:27:41;;;;;;;10.50;7.18;;;19.50;99.90;;;;;;5112074;28;20016;-53
2022/07/22 03:30:07;;;;;;;8.82;7.05;;;19.50;99.90;;;;;;5112208;28;20092;-54
2022/07/22 03:32:33;;;;;;;7.60;6.70;;;19.40;99.90;;;;;;5112067;28;20028;-52
2022/07/22 03:34:59;;;;;;;7.57;6.50;;;19.40;99.90;;;;;;5093796;28;20039;-53
2022/07/22 03:37:24;;;;;;;8.63;6.78;;;19.40;99.90;;;;;;5111359;28;20055;-53
2022/07/22 03:39:50;;;;;;;11.15;6.70;;;19.40;99.90;;;;;;5112112;28;20027;-55
2022/07/22 03:42:16;;;;;;;7.57;6.78;;;19.40;99.90;;;;;;5112541;28;20024;-53
2022/07/22 03:44:41;;;;;;;8.70;6.68;;;19.40;99.90;;;;;;5111982;28;20076;-55
2022/07/22 03:47:07;;;;;;;6.97;6.28;;;19.40;99.90;;;;;;5115060;28;20392;-53
2022/07/22 03:49:33;;;;;;;7.40;6.43;;;19.40;99.90;;;;;;5097427;28;20080;-53
2022/07/22 03:51:58;;;;;;;8.13;6.72;;;19.40;99.90;;;;;;5115514;28;20440;-54
2022/07/22 03:54:24;;;;;;;8.85;6.70;;;19.30;99.90;;;;;;5116429;28;20032;-54
2022/07/22 03:56:50;;;;;;;7.55;6.82;;;19.30;99.90;;;;;;5115569;28;20030;-53
2022/07/22 03:59:16;;;;;;;8.82;6.43;;;19.30;99.90;;;;;;5115878;28;20388;-54
2022/07/22 04:01:42;;;;;;;7.25;6.55;;;19.30;99.90;;;;;;5115648;28;20031;-53
2022/07/22 04:04:08;;;;;;;8.25;7.03;;;19.30;99.90;;;;;;5115351;28;20039;-54
2022/07/22 04:06:34;;;;;;;8.82;6.47;;;19.30;99.90;;;;;;5115260;28;20099;-53
2022/07/22 04:09:00;;;;;;;9.35;7.32;;;19.20;99.90;;;;;;5097307;28;20023;-54
2022/07/22 04:11:26;;;;;;;8.10;7.00;;;19.20;99.90;;;;;;5115587;28;20023;-53
2022/07/22 04:13:52;;;;;;;8.55;7.20;;;19.10;99.90;;;;;;5115401;28;20484;-52
2022/07/22 04:16:18;;;;;;;11.30;7.18;;;19.10;99.90;;;;;;5115566;28;20053;-54
2022/07/22 04:18:44;;;;;;;9.55;7.97;;;19.10;99.90;;;;;;5115159;28;20020;-52
2022/07/22 04:21:09;;;;;;;10.35;7.60;;;19.10;99.90;;;;;;5114922;28;20144;-55
2022/07/22 04:23:35;;;;;;;10.23;7.78;;;19.10;99.90;;;;;;5115171;28;20468;-53
2022/07/22 04:26:01;;;;;;;8.45;7.63;;;19.00;99.90;;;;;;5115191;28;20018;-52
2022/07/22 04:28:27;;;;;;;10.02;7.97;;;19.10;99.90;;;;;;5115107;28;20028;-53
2022/07/22 04:30:52;;;;;;;10.98;7.97;;;19.00;99.90;;;;;;5115551;28;20073;-54
2022/07/22 04:33:18;;;;;;;10.52;8.10;;;19.00;99.90;;;;;;5115077;28;20031;-55
2022/07/22 04:35:44;;;;;;;11.00;7.72;;;19.00;99.90;;;;;;5114464;28;20044;-54
2022/07/22 04:38:10;;;;;;;11.85;7.55;;;19.00;99.90;;;;;;5115184;28;20035;-53
2022/07/22 04:40:35;;;;;;;11.75;8.27;;;19.00;99.90;;;;;;5115003;28;20102;-49
2022/07/22 04:43:01;;;;;;;10.82;7.97;;;18.90;99.90;;;;;;5114855;28;20470;-55
2022/07/22 04:45:27;;;;;;;11.18;7.55;;;18.90;99.90;;;;;;5114703;28;20028;-55
2022/07/22 04:47:52;;;;;;;11.73;8.20;;;18.90;99.90;;;;;;5115186;28;20020;-54
2022/07/22 04:50:18;;;;;;;10.38;8.00;;;19.00;99.90;;;;;;5114545;28;20024;-54
2022/07/22 04:52:44;;;;;;;10.95;7.90;;;18.90;99.90;;;;;;5114763;28;20422;-52
2022/07/22 04:55:10;;;;;;;13.77;7.88;;;18.90;99.90;;;;;;5114914;28;20593;-54
2022/07/22 04:57:35;;;;;;;10.57;8.48;;;18.80;99.90;;;;;;5113894;28;20028;-53
2022/07/22 05:00:02;;;;;;;11.57;8.27;;;18.80;99.90;;;;;;5114893;28;20023;-55
2022/07/22 05:02:28;;;;;;;10.63;8.18;;;18.80;99.90;;;;;;5114510;28;20020;-53
2022/07/22 05:04:53;;;;;;;8.45;7.10;;;18.80;99.90;;;;;;5113969;28;20039;-56
2022/07/22 05:07:19;;;;;;;10.65;7.68;;;18.80;99.90;;;;;;5114214;28;20103;-54
2022/07/22 05:09:45;;;;;;;10.90;7.60;;;18.90;99.90;;;;;;5114583;28;20118;-55
2022/07/22 05:12:11;;;;;;;9.95;7.53;;;18.90;99.90;;;;;;5114547;28;20023;-51
2022/07/22 05:14:36;;;;;;;9.82;7.82;;;18.90;99.90;;;;;;5114252;28;20024;-54
2022/07/22 05:17:02;;;;;;;10.50;7.82;;;18.90;99.90;;;;;;5114273;28;20442;-55
2022/07/22 05:19:28;;;;;;;10.40;7.10;;;18.90;99.90;;;;;;5113715;28;20024;-53
2022/07/22 05:21:54;;;;;;;9.80;7.28;;;18.90;99.90;;;;;;5114323;28;20031;-57
2022/07/22 05:24:19;;;;;;;9.43;6.80;;;18.90;99.90;;;;;;5114342;28;20023;-54
2022/07/22 05:26:45;;;;;;;7.88;6.75;;;18.90;99.90;;;;;;5114139;28;20499;-54
2022/07/22 05:29:11;;;;;;;10.25;7.50;;;18.90;99.90;;;;;;5113990;28;20019;-54
2022/07/22 05:31:37;;;;;;;10.48;7.25;;;19.00;99.90;;;;;;5113855;28;20059;-54
2022/07/22 05:34:03;;;;;;;10.90;7.05;;;19.00;99.90;;;;;;5113621;28;20023;-53
2022/07/22 05:36:29;;;;;;;11.40;7.80;;;19.10;99.90;;;;;;5113646;28;20056;-53
2022/07/22 05:38:55;;;;;;;15.82;7.80;;;19.10;99.90;;;;;;5113674;28;20369;-50
2022/07/22 05:41:20;;;;;;;12.68;8.35;;;19.20;99.90;;;;;;5113730;28;20030;-52
2022/07/22 05:43:46;;;;;;;14.70;7.95;;;19.30;99.90;;;;;;5113950;28;20030;-54
2022/07/22 05:46:11;;;;;;;11.93;7.55;;;19.40;99.90;;;;;;5113569;28;20087;-54
2022/07/22 05:48:37;;;;;;;14.27;7.90;;;19.50;99.90;;;;;;5113379;28;20408;-53
2022/07/22 05:51:03;;;;;;;14.18;7.25;;;19.70;99.90;;;;;;5113971;28;20035;-55
2022/07/22 05:53:29;;;;;;;16.90;7.80;;;19.80;99.90;;;;;;5113511;28;20376;-53
2022/07/22 05:55:54;;;;;;;13.85;7.00;;;19.90;99.90;;;;;;5113552;28;20020;-54
2022/07/22 05:58:20;;;;;;;9.18;6.35;;;20.10;99.90;;;;;;5113174;28;20383;-54
2022/07/22 06:00:46;;;;;;;13.23;7.03;;;20.10;99.90;;;;;;5113493;28;20028;-52
2022/07/22 06:03:11;;;;;;;13.57;7.05;;;20.20;99.90;;;;;;5113030;28;20076;-52
2022/07/22 06:05:37;;;;;;;11.57;6.43;;;20.40;99.90;;;;;;5113197;28;20551;-52
2022/07/22 06:08:04;;;;;;;11.15;6.88;;;20.50;99.90;;;;;;5113626;28;20035;-54
2022/07/22 06:10:30;;;;;;;11.13;6.25;;;20.70;99.90;;;;;;5112268;28;20035;-54
2022/07/22 06:12:55;;;;;;;14.30;7.13;;;20.80;99.90;;;;;;5113198;28;20492;-53
2022/07/22 06:15:21;;;;;;;11.40;6.53;;;21.00;99.90;;;;;;5113077;28;20020;-53
2022/07/22 06:17:47;;;;;;;13.05;6.88;;;21.20;99.90;;;;;;5112784;28;20066;-54
2022/07/22 06:20:12;;;;;;;14.43;7.10;;;21.40;99.90;;;;;;5113426;28;20469;-54
2022/07/22 06:22:41;;;;;;;11.27;6.82;;;21.50;99.90;;;;;;5112909;28;20396;-54
2022/07/22 06:25:08;;;;;;;16.33;6.38;;;21.50;99.90;;;;;;5112936;28;20044;-55
2022/07/22 06:27:34;;;;;;;10.90;6.22;;;21.80;99.90;;;;;;5112618;28;20032;-54
2022/07/22 06:30:00;;;;;;;11.57;6.38;;;21.90;99.90;;;;;;5094633;28;20031;-56
2022/07/22 06:32:26;;;;;;;10.02;6.72;;;22.10;99.90;;;;;;5112539;28;20027;-53
2022/07/22 06:34:51;;;;;;;8.82;6.28;;;22.20;99.90;;;;;;5112871;28;20081;-55
2022/07/22 06:37:17;;;;;;;11.93;6.63;;;22.40;99.90;;;;;;5112571;28;20047;-53
2022/07/22 06:39:43;;;;;;;9.13;6.15;;;22.60;99.90;;;;;;5112819;28;20024;-55
2022/07/22 06:42:08;;;;;;;11.48;6.65;;;22.60;99.90;;;;;;5094363;28;20027;-55
2022/07/22 06:44:34;;;;;;;11.15;6.13;;;22.60;99.90;;;;;;5112672;28;20071;-54
2022/07/22 06:47:00;;;;;;;8.10;5.47;;;22.90;99.90;;;;;;5112116;28;20031;-56
2022/07/22 06:49:25;;;;;;;8.93;5.75;;;23.00;99.90;;;;;;5112592;28;20027;-55
2022/07/22 06:51:51;;;;;;;12.25;6.32;;;23.20;99.90;;;;;;5113078;28;20028;-56
2022/07/22 06:54:17;;;;;;;10.43;6.07;;;23.10;99.90;;;;;;5112575;28;20036;-56
2022/07/22 06:56:43;;;;;;;12.30;5.93;;;23.00;99.90;;;;;;5112239;28;20028;-55
2022/07/22 06:59:08;;;;;;;8.60;5.57;;;22.90;99.90;;;;;;5112598;28;20034;-55
2022/07/22 07:01:34;;;;;;;9.23;6.38;;;22.80;99.90;;;;;;5112474;28;20020;-55
2022/07/22 07:04:00;;;;;;;12.30;5.60;;;22.80;99.90;;;;;;5112435;28;20374;-55
2022/07/22 07:06:25;;;;;;;11.27;5.78;;;22.80;99.90;;;;;;5112401;28;20020;-55
2022/07/22 07:08:51;;;;;;;10.60;5.07;;;22.90;99.90;;;;;;5112341;28;20027;-53
2022/07/22 07:11:17;;;;;;;7.22;4.65;;;22.90;99.90;;;;;;5112300;28;20023;-54
2022/07/22 07:13:43;;;;;;;9.80;4.53;;;22.90;99.90;;;;;;5112674;28;20445;-55
2022/07/22 07:16:09;;;;;;;9.98;4.53;;;23.00;99.90;;;;;;5111879;28;20027;-53
2022/07/22 07:18:34;;;;;;;6.40;3.35;;;23.00;99.90;;;;;;5112743;28;20065;-54
2022/07/22 07:21:00;;;;;;;10.45;3.97;;;23.00;99.90;;;;;;5113099;28;20031;-55
2022/07/22 07:23:25;;;;;;;8.45;3.35;;;23.10;99.90;;;;;;5116756;28;20027;-53
2022/07/22 07:25:51;;;;;;;7.25;3.88;;;23.40;99.90;;;;;;5116609;28;20486;-53
2022/07/22 07:28:17;;;;;;;6.82;3.30;;;23.50;99.90;;;;;;5116357;28;20031;-53
2022/07/22 07:30:43;;;;;;;7.28;3.30;;;23.60;99.90;;;;;;5116073;28;20115;-55
2022/07/22 07:33:09;;;;;;;5.85;2.90;;;23.80;99.90;;;;;;5116246;28;20027;-55
2022/07/22 07:35:35;;;;;;;6.43;3.00;;;24.10;99.90;;;;;;5115900;28;20063;-54
2022/07/22 07:38:00;;;;;;;8.55;3.78;;;24.30;99.90;;;;;;5098037;28;20396;-54
2022/07/22 07:40:26;;;;;;;7.45;3.20;;;24.50;99.90;;;;;;5116114;28;20032;-54
2022/07/22 07:42:52;;;;;;;5.70;3.35;;;24.70;99.90;;;;;;5116044;28;20059;-55
2022/07/22 07:45:17;;;;;;;7.20;2.85;;;24.20;99.90;;;;;;5115965;28;20035;-53
2022/07/22 07:47:43;;;;;;;8.65;2.60;;;24.10;99.90;;;;;;5115936;28;20042;-54
2022/07/22 07:50:09;;;;;;;6.07;2.80;;;24.20;99.90;;;;;;5115876;28;20028;-53
2022/07/22 07:52:44;;;;;;;4.63;2.67;;;24.30;99.90;;;;;;5115864;28;20024;-54
2022/07/22 07:55:10;;;;;;;7.40;3.00;;;24.60;99.90;;;;;;5115658;28;20102;-54
2022/07/22 07:57:36;;;;;;;8.10;2.78;;;24.80;99.90;;;;;;5115644;28;20492;-55
2022/07/22 08:00:07;;;;;;;8.18;2.50;;;24.80;99.90;;;;;;5115864;28;20397;-55
2022/07/22 08:02:33;;;;;;;4.97;2.50;;;25.20;99.90;;;;;;5115532;28;20015;-55
2022/07/22 08:04:59;;;;;;;5.05;2.30;;;25.40;99.90;;;;;;5115669;28;20412;-53
2022/07/22 08:07:26;;;;;;;5.47;2.60;;;25.70;99.90;;;;;;5115468;28;20098;-53
2022/07/22 08:09:51;;;;;;;6.10;2.58;;;25.40;99.90;;;;;;5115482;28;20132;-55
2022/07/22 08:12:17;;;;;;;6.10;2.63;;;25.50;99.90;;;;;;5115586;28;20496;-54
2022/07/22 08:14:43;;;;;;;6.53;2.35;;;25.50;99.90;;;;;;5115398;28;20507;-54
2022/07/22 08:17:08;;;;;;;6.28;2.50;;;25.40;99.90;;;;;;5115415;28;20107;-54
2022/07/22 08:19:34;;;;;;;6.88;2.53;;;25.50;99.90;;;;;;5115655;28;20408;-54
2022/07/22 08:22:00;;;;;;;5.10;2.40;;;25.40;99.90;;;;;;5115453;28;20081;-54
2022/07/22 08:24:26;;;;;;;9.07;2.72;;;25.50;99.90;;;;;;5115255;28;20040;-55
2022/07/22 08:26:51;;;;;;;5.28;2.63;;;25.30;99.90;;;;;;5114782;28;20024;-55
2022/07/22 08:29:17;;;;;;;7.32;2.70;;;25.30;99.90;;;;;;5115501;28;20192;-55
2022/07/22 08:31:43;;;;;;;8.15;2.50;;;25.20;99.90;;;;;;5115144;28;20020;-54
2022/07/22 08:34:09;;;;;;;10.07;2.95;;;25.10;99.90;;;;;;5114169;28;20442;-54
2022/07/22 08:36:34;;;;;;;8.88;2.50;;;25.00;99.90;;;;;;5115244;28;20051;-53
2022/07/22 08:39:00;;;;;;;8.20;2.30;;;25.00;99.90;;;;;;5096609;28;20481;-55
2022/07/22 08:41:26;;;;;;;9.23;2.33;;;25.00;99.90;;;;;;5114521;28;20049;-53
2022/07/22 08:43:52;;;;;;;9.13;2.42;;;25.10;99.90;;;;;;5114853;28;20043;-54
2022/07/22 08:46:18;;;;;;;5.43;2.10;;;25.10;99.90;;;;;;5115298;28;20081;-53
2022/07/22 08:48:45;;;;;;;6.55;2.28;;;25.50;99.90;;;;;;5114755;28;20468;-54
2022/07/22 08:51:11;;;;;;;9.18;2.50;;;25.60;99.90;;;;;;5114808;28;20073;-53
2022/07/22 08:53:37;;;;;;;8.70;2.28;;;26.10;99.90;;;;;;5114559;28;20107;-54
2022/07/22 08:56:03;;;;;;;5.18;2.40;;;26.60;99.90;;;;;;5114445;28;20053;-53
2022/07/22 08:58:28;;;;;;;4.40;2.00;;;26.70;99.90;;;;;;5114928;28;20084;-54
2022/07/22 09:01:11;;;;;;;6.50;2.45;;;26.60;99.90;;;;;;5114557;28;20051;-55
2022/07/22 09:03:50;;;;;;;10.43;2.30;;;26.50;99.90;;;;;;5114443;28;20428;-54
2022/07/22 09:06:17;;;;;;;4.63;2.00;;;26.80;99.90;;;;;;5114309;28;20081;-53
2022/07/22 09:09:02;;;;;;;6.60;1.90;;;27.00;99.90;;;;;;5114419;28;20499;-56
2022/07/22 09:11:29;;;;;;;6.78;2.25;;;27.10;99.90;;;;;;5113893;28;20028;-55
2022/07/22 09:13:56;;;;;;;6.22;2.15;;;27.10;99.90;;;;;;5114474;28;20049;-54
2022/07/22 09:16:42;;;;;;;5.55;2.13;;;27.10;99.90;;;;;;5114567;28;20031;-54
2022/07/22 09:19:09;;;;;;;8.02;2.13;;;27.00;99.90;;;;;;5114405;28;20480;-55
2022/07/22 09:21:36;;;;;;;6.10;2.40;;;26.90;99.90;;;;;;5114036;28;20020;-55
2022/07/22 09:24:04;;;;;;;5.40;2.13;;;26.90;99.90;;;;;;5114037;28;20039;-55
2022/07/22 09:26:36;;;;;;;6.53;2.53;;;27.10;99.90;;;;;;5114086;28;20156;-55
2022/07/22 09:29:03;;;;;;;5.05;2.13;;;26.70;99.90;;;;;;5114031;28;20031;-56
2022/07/22 09:31:35;;;;;;;6.50;2.50;;;26.50;99.90;;;;;;5114302;28;20020;-55
2022/07/22 09:34:02;;;;;;;6.88;2.63;;;27.00;99.90;;;;;;5114023;28;20392;-55
2022/07/22 09:36:28;;;;;;;5.90;2.50;;;27.30;99.90;;;;;;5113636;28;20496;-52
2022/07/22 09:38:54;;;;;;;6.15;2.40;;;27.60;99.90;;;;;;5114030;28;20027;-55
2022/07/22 09:41:21;;;;;;;7.57;2.42;;;27.30;99.90;;;;;;5113573;28;20027;-56
2022/07/22 09:43:47;;;;;;;8.93;5.30;;;27.30;99.90;;;;;;5113507;28;20425;-55
2022/07/22 09:46:13;;;;;;;9.55;4.97;;;28.40;99.90;;;;;;5113601;28;20110;-55
2022/07/22 09:48:40;;;;;;;6.13;3.30;;;30.00;98.90;;;;;;5114158;28;20057;-56
2022/07/22 09:51:06;;;;;;;5.13;2.90;;;31.40;96.70;;;;;;5113462;28;20437;-56
2022/07/22 09:53:33;;;;;;;4.50;2.80;;;32.20;95.00;;;;;;5113456;28;20023;-55
2022/07/22 09:56:00;;;;;;;6.90;3.90;;;33.10;93.80;;;;;;5113094;28;20055;-55
2022/07/22 09:58:26;;;;;;;9.25;3.90;;;32.80;92.90;;;;;;5113269;28;20047;-55
2022/07/22 10:00:53;;;;;;;5.82;3.88;;;34.10;91.50;;;;;;5113752;28;20114;-56
2022/07/22 10:03:30;;;;;;;7.82;4.63;;;34.90;90.50;;;;;;5095091;28;20028;-56
2022/07/22 10:05:57;;;;;;;10.40;4.72;;;34.80;88.40;;;;;;5113138;28;20089;-54
2022/07/22 10:08:27;;;;;;;12.10;6.18;;;35.40;86.90;;;;;;5112918;28;20073;-55
2022/07/22 10:11:00;;;;;;;11.48;6.88;;;36.70;84.70;;;;;;5113801;28;20043;-55
2022/07/22 10:13:26;;;;;;;9.23;7.28;;;36.30;83.40;;;;;;5113295;28;20023;-55
2022/07/22 10:15:54;;;;;;;13.48;7.50;;;36.50;82.10;;;;;;5113152;28;20039;-56
2022/07/22 10:18:20;;;;;;;11.00;6.88;;;36.00;83.20;;;;;;5113102;28;20107;-55
2022/07/22 10:20:46;;;;;;;8.80;6.50;;;35.60;83.50;;;;;;5113043;28;20373;-55
2022/07/22 10:23:13;;;;;;;12.87;7.70;;;36.80;81.50;;;;;;5112624;28;20112;-56
2022/07/22 10:26:08;;;;;;;14.18;7.97;;;35.80;81.40;;;;;;5113029;28;20024;-55
2022/07/22 10:28:35;;;;;;;8.85;7.20;;;34.50;84.10;;;;;;5095413;28;20028;-55
2022/07/22 10:31:23;;;;;;;12.20;8.05;;;33.90;85.40;;;;;;5112890;28;20093;-56
2022/07/22 10:33:51;;;;;;;11.38;8.48;;;33.40;86.20;;;;;;5112794;28;20151;-55
2022/07/22 10:36:49;;;;;;;8.82;6.20;;;33.30;86.70;;;;;;5112585;28;20100;-55
2022/07/22 10:39:15;;;;;;;10.45;7.57;;;33.20;85.70;;;;;;5029645;28;20385;-56
2022/07/22 10:41:43;;;;;;;9.45;8.40;;;33.10;85.80;;;;;;5030016;28;20132;-55
2022/07/22 10:44:10;;;;;;;11.40;8.40;;;32.90;86.70;;;;;;5029867;28;20075;-56
2022/07/22 10:46:54;;;;;;;13.27;9.15;;;32.40;87.20;;;;;;5030295;28;20034;-53
2022/07/22 10:49:22;;;;;;;9.38;7.55;;;32.50;87.20;;;;;;5030228;28;20044;-56
2022/07/22 10:52:09;;;;;;;10.82;7.88;;;32.40;86.30;;;;;;5029728;28;20449;-56
2022/07/22 10:55:13;;;;;;;9.05;7.18;;;32.40;88.10;;;;;;5029980;28;20049;-54
2022/07/22 10:57:39;;;;;;;9.52;6.97;;;32.30;88.30;;;;;;5030000;28;20568;-55
2022/07/22 11:00:06;;;;;;;10.52;6.53;;;32.30;88.20;;;;;;5029796;28;20026;-56
2022/07/22 11:02:33;;;;;;;13.27;8.77;;;32.40;87.30;;;;;;5029666;28;20037;-55
2022/07/22 11:04:59;;;;;;;12.75;8.60;;;31.60;86.90;;;;;;5029726;28;20512;-56
2022/07/22 11:07:27;;;;;;;11.57;8.57;;;31.10;89.60;;;;;;5029230;28;20018;-56
2022/07/22 11:09:53;;;;;;;11.77;9.15;;;31.20;89.20;;;;;;5029838;28;20038;-55
2022/07/22 11:12:19;;;;;;;12.18;8.48;;;31.30;89.80;;;;;;5029808;28;20026;-55
2022/07/22 11:14:45;;;;;;;12.35;8.32;;;31.20;89.70;;;;;;5068050;28;20055;-55
2022/07/22 11:17:13;;;;;;;12.20;8.23;;;31.00;88.60;;;;;;5112260;28;20023;-55
2022/07/22 11:19:40;;;;;;;13.20;7.88;;;30.50;90.00;;;;;;5112218;28;20039;-54
2022/07/22 11:22:10;;;;;;;10.93;7.28;;;30.80;90.20;;;;;;5112317;28;20039;-56
2022/07/22 11:24:37;;;;;;;12.43;7.88;;;30.60;90.30;;;;;;5112162;28;20088;-56
2022/07/22 11:27:04;;;;;;;11.40;7.50;;;30.40;90.20;;;;;;5112285;28;20433;-55
2022/07/22 11:29:35;;;;;;;13.95;7.18;;;30.80;90.50;;;;;;5112222;28;20015;-55
2022/07/22 11:32:06;;;;;;;11.23;7.20;;;30.30;90.60;;;;;;5112686;28;20035;-55
2022/07/22 11:34:31;;;;;;;11.00;6.05;;;29.70;90.70;;;;;;5113192;28;20046;-55
2022/07/22 11:36:58;;;;;;;10.52;6.30;;;29.50;91.10;;;;;;5111615;28;20507;-55
2022/07/22 11:39:26;;;;;;;10.63;6.32;;;29.90;91.20;;;;;;5112115;28;20028;-55
2022/07/22 11:41:54;;;;;;;11.27;5.50;;;29.60;90.60;;;;;;5112261;28;20034;-55
2022/07/22 11:44:22;;;;;;;10.88;5.65;;;29.60;90.70;;;;;;5112079;28;20028;-55
2022/07/22 11:46:48;;;;;;;9.52;5.55;;;29.90;90.90;;;;;;5112418;28;20036;-55
2022/07/22 11:49:16;;;;;;;9.48;5.30;;;29.60;90.80;;;;;;5112237;28;20463;-56
2022/07/22 11:51:42;;;;;;;10.63;5.30;;;29.30;91.40;;;;;;5111612;28;20026;-55
2022/07/22 11:54:08;;;;;;;8.57;5.53;;;30.10;91.00;;;;;;5112070;28;20049;-55
2022/07/22 11:56:35;;;;;;;9.20;4.97;;;30.60;90.30;;;;;;5111724;28;20035;-56
2022/07/22 11:59:04;;;;;;;7.63;4.72;;;30.40;90.60;;;;;;5111998;28;20051;-55
2022/07/22 12:01:32;;;;;;;9.75;4.93;;;30.20;90.80;;;;;;5094375;28;20027;-55
2022/07/22 12:04:04;;;;;;;8.57;4.63;;;30.00;90.50;;;;;;5112100;28;20064;-55
2022/07/22 12:06:34;;;;;;;10.35;4.80;;;29.80;90.40;;;;;;5111993;28;20028;-54
2022/07/22 12:09:10;;;;;;;10.50;5.05;;;30.00;90.60;;;;;;5114698;28;20023;-56
2022/07/22 12:11:41;;;;;;;8.63;4.68;;;30.00;90.50;;;;;;5115418;28;20098;-54
2022/07/22 12:14:15;;;;;;;9.65;4.45;;;30.30;90.20;;;;;;5116118;28;20041;-55
2022/07/22 12:16:43;;;;;;;7.57;3.83;;;30.30;90.30;;;;;;5115423;28;20510;-54
2022/07/22 12:19:13;;;;;;;6.32;3.50;;;30.30;90.40;;;;;;5115207;28;20050;-55
2022/07/22 12:21:55;;;;;;;8.88;4.15;;;30.10;91.00;;;;;;5115265;28;20020;-55
2022/07/22 12:24:38;;;;;;;8.95;3.90;;;30.40;90.10;;;;;;5115643;28;20170;-55
2022/07/22 12:27:09;;;;;;;8.98;3.40;;;30.20;90.70;;;;;;5115086;28;20485;-55
2022/07/22 12:29:37;;;;;;;7.50;3.80;;;30.50;90.60;;;;;;5115579;28;20031;-55
2022/07/22 12:32:09;;;;;;;5.53;3.60;;;30.40;90.60;;;;;;5115225;28;20024;-55
2022/07/22 12:35:01;;;;;;;7.95;3.50;;;30.90;90.50;;;;;;5115281;28;20028;-54
2022/07/22 12:37:30;;;;;;;11.30;3.55;;;30.50;90.10;;;;;;5114680;28;20108;-55
2022/07/22 12:39:58;;;;;;;6.60;3.65;;;30.00;90.80;;;;;;5115546;28;20077;-55
2022/07/22 12:42:27;;;;;;;9.27;3.53;;;29.50;90.80;;;;;;5114954;28;20020;-55